sensor_id;sensor_type;location;lat;lon;timestamp;pressure;altitude;pressure_sealevel;temperature;humidity
69780;BME280;57052;55.602;38.096;2023-04-06T00:01:26;100996.28;;;8.97;56.55
69780;BME280;57052;55.602;38.096;2023-04-06T00:03:52;101000.28;;;8.95;56.45
69780;BME280;57052;55.602;38.096;2023-04-06T00:06:17;100995.13;;;8.93;57.09
69780;BME280;57052;55.602;38.096;2023-04-06T00:08:43;100999.34;;;8.89;56.46
69780;BME280;57052;55.602;38.096;2023-04-06T00:11:09;101001.47;;;8.87;57.26
69780;BME280;57052;55.602;38.096;2023-04-06T00:13:35;101000.66;;;8.87;56.79
69780;BME280;57052;55.602;38.096;2023-04-06T00:16:01;101007.34;;;8.84;56.45
69780;BME280;57052;55.602;38.096;2023-04-06T00:18:26;100999.75;;;8.81;56.52
69780;BME280;57052;55.602;38.096;2023-04-06T00:20:52;101005.38;;;8.80;56.81
69780;BME280;57052;55.602;38.096;2023-04-06T00:23:18;101004.22;;;8.76;57.06
69780;BME280;57052;55.602;38.096;2023-04-06T00:25:43;101007.97;;;8.75;57.23
69780;BME280;57052;55.602;38.096;2023-04-06T00:28:09;101006.81;;;8.71;57.14
69780;BME280;57052;55.602;38.096;2023-04-06T00:30:34;101005.41;;;8.68;57.57
69780;BME280;57052;55.602;38.096;2023-04-06T00:33:00;101002.03;;;8.61;57.56
69780;BME280;57052;55.602;38.096;2023-04-06T00:35:26;101006.34;;;8.62;57.51
69780;BME280;57052;55.602;38.096;2023-04-06T00:37:51;100992.88;;;8.51;57.17
69780;BME280;57052;55.602;38.096;2023-04-06T00:40:17;100978.13;;;8.42;57.46
69780;BME280;57052;55.602;38.096;2023-04-06T00:42:43;100985.72;;;8.45;57.22
69780;BME280;57052;55.602;38.096;2023-04-06T00:45:09;100999.09;;;8.51;57.73
69780;BME280;57052;55.602;38.096;2023-04-06T00:47:35;101002.03;;;8.50;57.57
69780;BME280;57052;55.602;38.096;2023-04-06T00:50:01;100995.22;;;8.47;57.53
69780;BME280;57052;55.602;38.096;2023-04-06T00:52:27;100985.28;;;8.36;57.68
69780;BME280;57052;55.602;38.096;2023-04-06T00:54:53;100992.66;;;8.41;57.88
69780;BME280;57052;55.602;38.096;2023-04-06T00:57:19;100993.94;;;8.38;58.17
69780;BME280;57052;55.602;38.096;2023-04-06T00:59:45;101000.06;;;8.33;57.75
69780;BME280;57052;55.602;38.096;2023-04-06T01:02:11;101001.69;;;8.34;58.50
69780;BME280;57052;55.602;38.096;2023-04-06T01:04:37;100995.59;;;8.27;57.78
69780;BME280;57052;55.602;38.096;2023-04-06T01:07:02;101000.53;;;8.30;57.85
69780;BME280;57052;55.602;38.096;2023-04-06T01:09:28;101001.56;;;8.29;57.70
69780;BME280;57052;55.602;38.096;2023-04-06T01:11:57;101005.56;;;8.27;58.61
69780;BME280;57052;55.602;38.096;2023-04-06T01:14:24;100999.38;;;8.26;58.29
69780;BME280;57052;55.602;38.096;2023-04-06T01:16:52;101003.06;;;8.25;58.75
69780;BME280;57052;55.602;38.096;2023-04-06T01:19:17;100997.31;;;8.22;58.56
69780;BME280;57052;55.602;38.096;2023-04-06T01:21:43;100974.34;;;8.08;58.04
69780;BME280;57052;55.602;38.096;2023-04-06T01:24:09;100984.09;;;8.09;58.51
69780;BME280;57052;55.602;38.096;2023-04-06T01:26:35;100982.09;;;8.04;58.62
69780;BME280;57052;55.602;38.096;2023-04-06T01:29:02;100992.78;;;8.11;58.71
69780;BME280;57052;55.602;38.096;2023-04-06T01:31:28;100995.09;;;8.07;58.06
69780;BME280;57052;55.602;38.096;2023-04-06T01:33:54;100993.69;;;8.05;58.88
69780;BME280;57052;55.602;38.096;2023-04-06T01:36:20;100989.59;;;8.02;58.70
69780;BME280;57052;55.602;38.096;2023-04-06T01:38:45;100990.88;;;8.00;58.68
69780;BME280;57052;55.602;38.096;2023-04-06T01:41:11;100981.25;;;7.92;58.69
69780;BME280;57052;55.602;38.096;2023-04-06T01:43:37;100991.59;;;7.95;58.55
69780;BME280;57052;55.602;38.096;2023-04-06T01:46:03;100985.03;;;7.91;59.06
69780;BME280;57052;55.602;38.096;2023-04-06T01:48:29;100990.63;;;7.90;58.74
69780;BME280;57052;55.602;38.096;2023-04-06T01:50:54;100990.88;;;7.88;58.87
69780;BME280;57052;55.602;38.096;2023-04-06T01:53:20;100994.63;;;7.87;59.18
69780;BME280;57052;55.602;38.096;2023-04-06T01:55:46;100988.06;;;7.83;59.22
69780;BME280;57052;55.602;38.096;2023-04-06T01:58:12;100986.28;;;7.77;59.27
69780;BME280;57052;55.602;38.096;2023-04-06T02:00:38;100993.09;;;7.80;59.07
69780;BME280;57052;55.602;38.096;2023-04-06T02:03:03;100996.84;;;7.79;59.46
69780;BME280;57052;55.602;38.096;2023-04-06T02:05:31;100997.56;;;7.74;58.84
69780;BME280;57052;55.602;38.096;2023-04-06T02:07:57;101004.22;;;7.71;59.52
69780;BME280;57052;55.602;38.096;2023-04-06T02:10:22;101004.91;;;7.67;59.91
69780;BME280;57052;55.602;38.096;2023-04-06T02:12:49;101010.16;;;7.62;59.71
69780;BME280;57052;55.602;38.096;2023-04-06T02:15:15;101007.00;;;7.65;59.82
69780;BME280;57052;55.602;38.096;2023-04-06T02:17:41;101005.59;;;7.62;59.44
69780;BME280;57052;55.602;38.096;2023-04-06T02:20:07;100995.38;;;7.53;59.69
69780;BME280;57052;55.602;38.096;2023-04-06T02:22:35;101009.56;;;7.60;59.21
69780;BME280;57052;55.602;38.096;2023-04-06T02:25:00;101016.03;;;7.59;59.98
69780;BME280;57052;55.602;38.096;2023-04-06T02:27:26;100990.69;;;7.48;59.70
69780;BME280;57052;55.602;38.096;2023-04-06T02:29:52;101013.41;;;7.52;59.37
69780;BME280;57052;55.602;38.096;2023-04-06T02:32:17;101021.63;;;7.57;59.31
69780;BME280;57052;55.602;38.096;2023-04-06T02:34:43;101023.50;;;7.57;59.98
69780;BME280;57052;55.602;38.096;2023-04-06T02:37:08;101023.97;;;7.54;59.84
69780;BME280;57052;55.602;38.096;2023-04-06T02:39:34;101021.50;;;7.52;59.62
69780;BME280;57052;55.602;38.096;2023-04-06T02:42:00;101025.47;;;7.50;60.26
69780;BME280;57052;55.602;38.096;2023-04-06T02:44:25;101016.09;;;7.41;60.23
69780;BME280;57052;55.602;38.096;2023-04-06T02:46:51;101025.94;;;7.47;60.37
69780;BME280;57052;55.602;38.096;2023-04-06T02:49:16;101030.53;;;7.46;59.24
69780;BME280;57052;55.602;38.096;2023-04-06T02:51:42;101031.81;;;7.44;59.55
69780;BME280;57052;55.602;38.096;2023-04-06T02:54:07;101018.88;;;7.34;60.31
69780;BME280;57052;55.602;38.096;2023-04-06T02:56:33;101039.25;;;7.42;59.54
69780;BME280;57052;55.602;38.096;2023-04-06T02:58:58;101041.38;;;7.40;60.17
69780;BME280;57052;55.602;38.096;2023-04-06T03:01:26;101035.63;;;7.36;59.78
69780;BME280;57052;55.602;38.096;2023-04-06T03:03:51;101035.03;;;7.34;59.55
69780;BME280;57052;55.602;38.096;2023-04-06T03:06:17;101045.78;;;7.34;60.05
69780;BME280;57052;55.602;38.096;2023-04-06T03:08:42;101039.00;;;7.32;60.03
69780;BME280;57052;55.602;38.096;2023-04-06T03:11:08;101044.16;;;7.33;59.95
69780;BME280;57052;55.602;38.096;2023-04-06T03:13:33;101049.91;;;7.37;60.16
69780;BME280;57052;55.602;38.096;2023-04-06T03:15:59;101050.72;;;7.37;59.86
69780;BME280;57052;55.602;38.096;2023-04-06T03:18:25;101055.28;;;7.37;59.90
69780;BME280;57052;55.602;38.096;2023-04-06T03:20:51;101056.94;;;7.38;60.24
69780;BME280;57052;55.602;38.096;2023-04-06T03:23:19;101048.28;;;7.36;60.00
69780;BME280;57052;55.602;38.096;2023-04-06T03:25:46;101042.38;;;7.27;59.86
69780;BME280;57052;55.602;38.096;2023-04-06T03:28:12;101053.88;;;7.34;59.63
69780;BME280;57052;55.602;38.096;2023-04-06T03:30:37;101057.97;;;7.37;59.67
69780;BME280;57052;55.602;38.096;2023-04-06T03:33:03;101076.84;;;7.37;59.79
69780;BME280;57052;55.602;38.096;2023-04-06T03:35:28;101066.69;;;7.39;60.51
69780;BME280;57052;55.602;38.096;2023-04-06T03:37:54;101072.06;;;7.39;59.54
69780;BME280;57052;55.602;38.096;2023-04-06T03:40:20;101068.31;;;7.40;60.21
69780;BME280;57052;55.602;38.096;2023-04-06T03:42:46;101065.25;;;7.36;59.54
69780;BME280;57052;55.602;38.096;2023-04-06T03:45:11;101073.69;;;7.40;59.73
69780;BME280;57052;55.602;38.096;2023-04-06T03:47:39;101073.69;;;7.40;59.99
69780;BME280;57052;55.602;38.096;2023-04-06T03:50:05;101080.50;;;7.42;60.31
69780;BME280;57052;55.602;38.096;2023-04-06T03:52:31;101084.00;;;7.43;60.31
69780;BME280;57052;55.602;38.096;2023-04-06T03:54:57;101079.91;;;7.40;60.33
69780;BME280;57052;55.602;38.096;2023-04-06T03:57:22;101090.56;;;7.47;60.70
69780;BME280;57052;55.602;38.096;2023-04-06T03:59:48;101089.53;;;7.48;60.38
69780;BME280;57052;55.602;38.096;2023-04-06T04:02:13;101076.97;;;7.42;59.98
69780;BME280;57052;55.602;38.096;2023-04-06T04:04:39;101084.06;;;7.54;60.23
69780;BME280;57052;55.602;38.096;2023-04-06T04:07:04;101085.13;;;7.53;60.41
69780;BME280;57052;55.602;38.096;2023-04-06T04:09:30;101085.25;;;7.58;60.18
69780;BME280;57052;55.602;38.096;2023-04-06T04:11:55;101082.91;;;7.62;60.22
69780;BME280;57052;55.602;38.096;2023-04-06T04:14:21;101094.06;;;7.65;60.24
69780;BME280;57052;55.602;38.096;2023-04-06T04:16:47;101081.63;;;7.64;59.82
69780;BME280;57052;55.602;38.096;2023-04-06T04:19:12;101091.75;;;7.69;59.62
69780;BME280;57052;55.602;38.096;2023-04-06T04:21:45;101093.16;;;7.71;60.07
69780;BME280;57052;55.602;38.096;2023-04-06T04:24:12;101072.50;;;7.65;59.58
69780;BME280;57052;55.602;38.096;2023-04-06T04:26:38;101095.88;;;7.83;59.30
69780;BME280;57052;55.602;38.096;2023-04-06T04:29:04;101091.66;;;7.87;59.41
69780;BME280;57052;55.602;38.096;2023-04-06T04:31:30;101088.50;;;7.90;59.43
69780;BME280;57052;55.602;38.096;2023-04-06T04:33:56;101098.00;;;7.93;59.28
69780;BME280;57052;55.602;38.096;2023-04-06T04:36:21;101087.59;;;7.96;58.72
69780;BME280;57052;55.602;38.096;2023-04-06T04:38:48;101086.06;;;8.00;59.01
69780;BME280;57052;55.602;38.096;2023-04-06T04:41:13;101088.88;;;8.05;58.59
69780;BME280;57052;55.602;38.096;2023-04-06T04:43:39;101089.34;;;8.02;58.45
69780;BME280;57052;55.602;38.096;2023-04-06T04:46:05;101095.22;;;8.11;58.05
69780;BME280;57052;55.602;38.096;2023-04-06T04:48:30;101085.63;;;8.15;59.08
69780;BME280;57052;55.602;38.096;2023-04-06T04:50:56;101090.31;;;8.19;58.97
69780;BME280;57052;55.602;38.096;2023-04-06T04:53:22;101083.28;;;8.18;58.87
69780;BME280;57052;55.602;38.096;2023-04-06T04:55:47;101095.59;;;8.26;59.08
69780;BME280;57052;55.602;38.096;2023-04-06T04:58:13;101083.78;;;8.27;57.81
69780;BME280;57052;55.602;38.096;2023-04-06T05:00:42;101100.19;;;8.37;57.91
69780;BME280;57052;55.602;38.096;2023-04-06T05:03:09;101094.59;;;8.38;58.11
69780;BME280;57052;55.602;38.096;2023-04-06T05:05:35;101090.59;;;8.41;58.40
69780;BME280;57052;55.602;38.096;2023-04-06T05:08:01;101086.94;;;8.47;58.01
69780;BME280;57052;55.602;38.096;2023-04-06T05:10:27;101097.41;;;8.55;57.63
69780;BME280;57052;55.602;38.096;2023-04-06T05:12:53;101092.59;;;8.57;57.46
69780;BME280;57052;55.602;38.096;2023-04-06T05:15:19;101096.22;;;8.63;57.96
69780;BME280;57052;55.602;38.096;2023-04-06T05:17:44;101097.06;;;8.63;57.74
69780;BME280;57052;55.602;38.096;2023-04-06T05:20:10;101099.97;;;8.73;58.06
69780;BME280;57052;55.602;38.096;2023-04-06T05:22:36;101101.72;;;8.79;57.41
69780;BME280;57052;55.602;38.096;2023-04-06T05:25:02;101099.38;;;8.83;57.30
69780;BME280;57052;55.602;38.096;2023-04-06T05:27:28;101076.25;;;8.75;57.33
69780;BME280;57052;55.602;38.096;2023-04-06T05:29:54;101093.16;;;8.94;57.19
69780;BME280;57052;55.602;38.096;2023-04-06T05:32:20;101092.44;;;8.98;56.83
69780;BME280;57052;55.602;38.096;2023-04-06T05:34:48;101094.41;;;9.03;56.63
69780;BME280;57052;55.602;38.096;2023-04-06T05:37:15;101086.66;;;9.07;56.57
69780;BME280;57052;55.602;38.096;2023-04-06T05:39:41;101095.69;;;9.12;56.37
69780;BME280;57052;55.602;38.096;2023-04-06T05:42:06;101099.09;;;9.19;56.42
69780;BME280;57052;55.602;38.096;2023-04-06T05:44:32;101093.53;;;9.26;56.71
69780;BME280;57052;55.602;38.096;2023-04-06T05:46:58;101085.78;;;9.29;56.49
69780;BME280;57052;55.602;38.096;2023-04-06T05:49:23;101085.16;;;9.39;56.44
69780;BME280;57052;55.602;38.096;2023-04-06T05:51:49;101086.56;;;9.41;55.91
69780;BME280;57052;55.602;38.096;2023-04-06T05:54:15;101097.47;;;9.46;55.96
69780;BME280;57052;55.602;38.096;2023-04-06T05:56:40;101063.81;;;9.26;55.91
69780;BME280;57052;55.602;38.096;2023-04-06T05:59:06;101104.94;;;9.56;55.70
69780;BME280;57052;55.602;38.096;2023-04-06T06:01:33;101079.34;;;9.47;55.63
69780;BME280;57052;55.602;38.096;2023-04-06T06:04:01;101100.56;;;9.66;55.46
69780;BME280;57052;55.602;38.096;2023-04-06T06:06:27;101092.66;;;9.65;55.72
69780;BME280;57052;55.602;38.096;2023-04-06T06:08:53;101097.78;;;9.78;55.63
69780;BME280;57052;55.602;38.096;2023-04-06T06:11:19;101097.53;;;9.80;55.58
69780;BME280;57052;55.602;38.096;2023-04-06T06:13:44;101107.88;;;9.83;54.95
69780;BME280;57052;55.602;38.096;2023-04-06T06:16:10;101094.13;;;9.84;54.97
69780;BME280;57052;55.602;38.096;2023-04-06T06:18:35;101087.97;;;9.89;54.88
69780;BME280;57052;55.602;38.096;2023-04-06T06:21:02;101101.09;;;9.97;55.09
69780;BME280;57052;55.602;38.096;2023-04-06T06:23:28;101092.47;;;10.00;54.71
69780;BME280;57052;55.602;38.096;2023-04-06T06:25:53;101094.22;;;10.06;55.07
69780;BME280;57052;55.602;38.096;2023-04-06T06:28:19;101092.75;;;10.15;54.95
69780;BME280;57052;55.602;38.096;2023-04-06T06:30:44;101093.44;;;10.22;54.57
69780;BME280;57052;55.602;38.096;2023-04-06T06:33:10;101096.53;;;10.30;54.71
69780;BME280;57052;55.602;38.096;2023-04-06T06:35:36;101102.03;;;10.36;54.52
69780;BME280;57052;55.602;38.096;2023-04-06T06:38:01;101098.91;;;10.44;54.38
69780;BME280;57052;55.602;38.096;2023-04-06T06:40:27;101100.97;;;10.53;53.98
69780;BME280;57052;55.602;38.096;2023-04-06T06:42:53;101096.69;;;10.57;54.16
69780;BME280;57052;55.602;38.096;2023-04-06T06:45:18;101096.53;;;10.64;53.63
69780;BME280;57052;55.602;38.096;2023-04-06T06:47:45;101094.44;;;10.71;53.40
69780;BME280;57052;55.602;38.096;2023-04-06T06:50:11;101097.22;;;10.76;53.37
69780;BME280;57052;55.602;38.096;2023-04-06T06:52:37;101091.06;;;10.80;53.47
69780;BME280;57052;55.602;38.096;2023-04-06T06:55:02;101093.34;;;10.88;53.48
69780;BME280;57052;55.602;38.096;2023-04-06T06:57:28;101085.03;;;10.95;53.18
69780;BME280;57052;55.602;38.096;2023-04-06T06:59:54;101075.28;;;10.94;53.24
69780;BME280;57052;55.602;38.096;2023-04-06T07:02:19;101084.44;;;11.10;53.21
69780;BME280;57052;55.602;38.096;2023-04-06T07:04:48;101072.75;;;11.09;52.62
69780;BME280;57052;55.602;38.096;2023-04-06T07:07:14;101085.66;;;11.24;52.93
69780;BME280;57052;55.602;38.096;2023-04-06T07:09:40;101090.66;;;11.32;52.94
69780;BME280;57052;55.602;38.096;2023-04-06T07:12:05;101086.09;;;11.37;52.58
69780;BME280;57052;55.602;38.096;2023-04-06T07:14:31;101076.06;;;11.38;52.19
69780;BME280;57052;55.602;38.096;2023-04-06T07:16:57;101077.50;;;11.45;52.23
69780;BME280;57052;55.602;38.096;2023-04-06T07:19:23;101055.97;;;11.34;51.89
69780;BME280;57052;55.602;38.096;2023-04-06T07:21:48;101084.63;;;11.51;51.77
69780;BME280;57052;55.602;38.096;2023-04-06T07:24:17;101081.97;;;11.56;51.66
69780;BME280;57052;55.602;38.096;2023-04-06T07:26:43;101082.28;;;11.60;51.83
69780;BME280;57052;55.602;38.096;2023-04-06T07:29:08;101086.69;;;11.66;51.77
69780;BME280;57052;55.602;38.096;2023-04-06T07:31:34;101085.72;;;11.72;51.46
69780;BME280;57052;55.602;38.096;2023-04-06T07:34:01;101075.09;;;11.71;51.41
69780;BME280;57052;55.602;38.096;2023-04-06T07:36:27;101076.06;;;11.86;51.09
69780;BME280;57052;55.602;38.096;2023-04-06T07:38:52;101081.59;;;11.96;51.33
69780;BME280;57052;55.602;38.096;2023-04-06T07:41:18;101081.13;;;12.04;50.94
69780;BME280;57052;55.602;38.096;2023-04-06T07:43:43;101082.00;;;12.15;50.90
69780;BME280;57052;55.602;38.096;2023-04-06T07:46:12;101079.91;;;12.22;50.54
69780;BME280;57052;55.602;38.096;2023-04-06T07:48:38;101077.25;;;12.27;50.36
69780;BME280;57052;55.602;38.096;2023-04-06T07:51:04;101079.72;;;12.34;50.31
69780;BME280;57052;55.602;38.096;2023-04-06T07:53:30;101082.78;;;12.42;50.39
69780;BME280;57052;55.602;38.096;2023-04-06T07:55:57;101083.09;;;12.51;50.18
69780;BME280;57052;55.602;38.096;2023-04-06T07:58:23;101082.88;;;12.57;50.18
69780;BME280;57052;55.602;38.096;2023-04-06T08:00:49;101087.81;;;12.65;49.46
69780;BME280;57052;55.602;38.096;2023-04-06T08:03:15;101082.16;;;12.72;49.64
69780;BME280;57052;55.602;38.096;2023-04-06T08:05:42;101088.72;;;12.81;49.33
69780;BME280;57052;55.602;38.096;2023-04-06T08:08:08;101066.13;;;12.75;49.10
69780;BME280;57052;55.602;38.096;2023-04-06T08:10:33;101084.69;;;12.88;48.95
69780;BME280;57052;55.602;38.096;2023-04-06T08:13:00;101070.00;;;12.84;48.60
69780;BME280;57052;55.602;38.096;2023-04-06T08:15:25;101088.53;;;12.98;48.43
69780;BME280;57052;55.602;38.096;2023-04-06T08:17:51;101077.44;;;13.04;48.63
69780;BME280;57052;55.602;38.096;2023-04-06T08:20:18;101080.22;;;13.09;48.31
69780;BME280;57052;55.602;38.096;2023-04-06T08:22:43;101080.50;;;13.23;48.07
69780;BME280;57052;55.602;38.096;2023-04-06T08:25:09;101065.03;;;13.23;47.77
69780;BME280;57052;55.602;38.096;2023-04-06T08:27:35;101053.63;;;13.26;48.32
69780;BME280;57052;55.602;38.096;2023-04-06T08:30:00;101079.25;;;13.45;47.54
69780;BME280;57052;55.602;38.096;2023-04-06T08:32:26;101073.28;;;13.54;47.41
69780;BME280;57052;55.602;38.096;2023-04-06T08:34:55;101079.56;;;13.59;46.49
69780;BME280;57052;55.602;38.096;2023-04-06T08:37:21;101077.94;;;13.68;47.61
69780;BME280;57052;55.602;38.096;2023-04-06T08:39:47;101069.78;;;13.73;46.99
69780;BME280;57052;55.602;38.096;2023-04-06T08:42:25;101083.41;;;13.78;44.96
69780;BME280;57052;55.602;38.096;2023-04-06T08:44:51;101059.19;;;13.82;46.54
69780;BME280;57052;55.602;38.096;2023-04-06T08:47:18;101068.72;;;13.94;46.91
69780;BME280;57052;55.602;38.096;2023-04-06T08:49:45;101062.75;;;13.97;46.45
69780;BME280;57052;55.602;38.096;2023-04-06T08:52:11;101043.69;;;14.02;46.34
69780;BME280;57052;55.602;38.096;2023-04-06T08:54:38;101065.19;;;14.19;46.39
69780;BME280;57052;55.602;38.096;2023-04-06T08:57:04;101063.00;;;14.26;45.93
69780;BME280;57052;55.602;38.096;2023-04-06T08:59:31;101043.69;;;14.23;45.54
69780;BME280;57052;55.602;38.096;2023-04-06T09:01:57;101049.41;;;14.41;45.92
69780;BME280;57052;55.602;38.096;2023-04-06T09:04:26;101037.97;;;14.44;45.31
69780;BME280;57052;55.602;38.096;2023-04-06T09:06:52;101052.59;;;14.68;45.50
69780;BME280;57052;55.602;38.096;2023-04-06T09:09:18;101036.25;;;14.68;44.88
69780;BME280;57052;55.602;38.096;2023-04-06T09:11:49;101054.72;;;14.92;44.88
69780;BME280;57052;55.602;38.096;2023-04-06T09:14:16;101052.75;;;15.07;44.88
69780;BME280;57052;55.602;38.096;2023-04-06T09:16:44;101044.75;;;15.26;44.60
69780;BME280;57052;55.602;38.096;2023-04-06T09:19:11;101043.28;;;15.49;44.79
69780;BME280;57052;55.602;38.096;2023-04-06T09:21:38;101039.63;;;15.68;44.39
69780;BME280;57052;55.602;38.096;2023-04-06T09:24:06;101034.59;;;15.85;44.06
69780;BME280;57052;55.602;38.096;2023-04-06T09:26:32;101037.41;;;16.09;43.57
69780;BME280;57052;55.602;38.096;2023-04-06T09:28:59;101053.66;;;16.24;42.92
69780;BME280;57052;55.602;38.096;2023-04-06T09:31:30;101048.34;;;16.38;41.48
69780;BME280;57052;55.602;38.096;2023-04-06T09:33:58;101047.34;;;16.57;42.22
69780;BME280;57052;55.602;38.096;2023-04-06T09:36:32;101030.50;;;16.74;39.73
69780;BME280;57052;55.602;38.096;2023-04-06T09:39:01;101038.25;;;16.91;40.81
69780;BME280;57052;55.602;38.096;2023-04-06T09:41:32;101040.44;;;17.12;40.84
69780;BME280;57052;55.602;38.096;2023-04-06T09:44:06;101026.16;;;17.34;38.13
69780;BME280;57052;55.602;38.096;2023-04-06T09:46:42;101026.72;;;17.55;38.68
69780;BME280;57052;55.602;38.096;2023-04-06T09:49:09;101025.03;;;17.77;40.18
69780;BME280;57052;55.602;38.096;2023-04-06T09:51:45;101027.44;;;17.98;38.47
69780;BME280;57052;55.602;38.096;2023-04-06T09:54:15;101031.75;;;18.17;39.16
69780;BME280;57052;55.602;38.096;2023-04-06T10:02:18;101027.81;;;18.83;36.46
69780;BME280;57052;55.602;38.096;2023-04-06T10:04:55;101021.91;;;19.03;36.55
69780;BME280;57052;55.602;38.096;2023-04-06T10:07:22;101018.41;;;19.25;37.51
69780;BME280;57052;55.602;38.096;2023-04-06T10:09:48;101013.66;;;19.44;37.11
69780;BME280;57052;55.602;38.096;2023-04-06T10:12:14;101011.75;;;19.66;37.00
69780;BME280;57052;55.602;38.096;2023-04-06T10:14:41;101019.19;;;19.88;36.35
69780;BME280;57052;55.602;38.096;2023-04-06T10:17:08;101016.53;;;20.05;36.10
69780;BME280;57052;55.602;38.096;2023-04-06T10:22:21;101020.53;;;20.43;33.12
69780;BME280;57052;55.602;38.096;2023-04-06T10:24:49;101013.75;;;20.50;34.64
69780;BME280;57052;55.602;38.096;2023-04-06T10:27:15;101004.59;;;20.63;34.22
69780;BME280;57052;55.602;38.096;2023-04-06T10:29:45;101008.56;;;20.79;32.49
69780;BME280;57052;55.602;38.096;2023-04-06T10:32:11;101009.91;;;20.98;33.60
69780;BME280;57052;55.602;38.096;2023-04-06T10:34:37;101014.19;;;21.22;33.74
69780;BME280;57052;55.602;38.096;2023-04-06T10:37:16;101016.50;;;21.37;29.86
69780;BME280;57052;55.602;38.096;2023-04-06T10:39:52;101002.22;;;21.60;30.34
69780;BME280;57052;55.602;38.096;2023-04-06T10:42:36;101005.16;;;21.81;30.22
69780;BME280;57052;55.602;38.096;2023-04-06T10:45:05;101016.34;;;22.02;30.74
69780;BME280;57052;55.602;38.096;2023-04-06T10:47:40;101005.28;;;22.19;28.80
69780;BME280;57052;55.602;38.096;2023-04-06T10:50:06;101000.84;;;22.35;31.30
69780;BME280;57052;55.602;38.096;2023-04-06T10:52:31;100960.63;;;22.25;30.79
69780;BME280;57052;55.602;38.096;2023-04-06T10:54:57;101003.72;;;22.47;30.01
69780;BME280;57052;55.602;38.096;2023-04-06T10:57:29;100999.16;;;22.51;27.93
69780;BME280;57052;55.602;38.096;2023-04-06T10:59:57;100998.19;;;22.64;29.99
69780;BME280;57052;55.602;38.096;2023-04-06T11:02:23;100998.13;;;22.73;29.73
69780;BME280;57052;55.602;38.096;2023-04-06T11:04:58;100996.34;;;22.77;26.65
69780;BME280;57052;55.602;38.096;2023-04-06T11:07:28;100995.44;;;22.93;27.63
69780;BME280;57052;55.602;38.096;2023-04-06T11:09:55;100998.00;;;22.98;28.51
69780;BME280;57052;55.602;38.096;2023-04-06T11:14:59;100993.84;;;23.13;25.33
69780;BME280;57052;55.602;38.096;2023-04-06T11:17:35;100989.81;;;23.31;26.76
69780;BME280;57052;55.602;38.096;2023-04-06T11:20:02;100991.56;;;23.44;27.70
69780;BME280;57052;55.602;38.096;2023-04-06T11:22:28;100985.13;;;23.52;27.80
69780;BME280;57052;55.602;38.096;2023-04-06T11:25:07;100994.84;;;23.58;24.84
69780;BME280;57052;55.602;38.096;2023-04-06T11:27:36;101000.69;;;23.78;26.45
69780;BME280;57052;55.602;38.096;2023-04-06T11:30:02;100999.50;;;23.99;27.28
69780;BME280;57052;55.602;38.096;2023-04-06T11:32:29;100989.78;;;24.14;26.85
69780;BME280;57052;55.602;38.096;2023-04-06T11:34:54;100989.00;;;24.38;27.01
69780;BME280;57052;55.602;38.096;2023-04-06T11:37:26;100996.19;;;24.51;25.12
69780;BME280;57052;55.602;38.096;2023-04-06T11:39:54;100992.97;;;24.61;25.64
69780;BME280;57052;55.602;38.096;2023-04-06T11:42:27;100985.47;;;24.73;24.53
69780;BME280;57052;55.602;38.096;2023-04-06T11:44:57;100997.31;;;24.82;24.39
69780;BME280;57052;55.602;38.096;2023-04-06T11:47:33;100982.25;;;24.96;23.44
69780;BME280;57052;55.602;38.096;2023-04-06T11:50:12;100976.16;;;25.02;23.53
69780;BME280;57052;55.602;38.096;2023-04-06T11:52:41;100967.38;;;25.12;24.09
69780;BME280;57052;55.602;38.096;2023-04-06T11:55:12;100969.88;;;25.29;24.03
69780;BME280;57052;55.602;38.096;2023-04-06T11:57:38;100983.22;;;25.52;25.33
69780;BME280;57052;55.602;38.096;2023-04-06T12:00:05;100973.59;;;25.61;24.93
69780;BME280;57052;55.602;38.096;2023-04-06T12:02:31;100961.13;;;25.67;24.51
69780;BME280;57052;55.602;38.096;2023-04-06T12:04:57;100965.59;;;25.72;24.50
69780;BME280;57052;55.602;38.096;2023-04-06T12:07:23;100962.38;;;25.70;24.10
69780;BME280;57052;55.602;38.096;2023-04-06T12:09:48;100966.84;;;25.74;24.12
69780;BME280;57052;55.602;38.096;2023-04-06T12:12:14;100949.50;;;25.50;24.07
69780;BME280;57052;55.602;38.096;2023-04-06T12:14:40;100983.19;;;25.64;23.98
69780;BME280;57052;55.602;38.096;2023-04-06T12:17:05;100972.59;;;25.54;24.01
69780;BME280;57052;55.602;38.096;2023-04-06T12:19:31;100978.06;;;25.50;23.54
69780;BME280;57052;55.602;38.096;2023-04-06T12:21:57;100977.69;;;25.52;23.59
69780;BME280;57052;55.602;38.096;2023-04-06T12:24:23;100961.75;;;25.36;23.56
69780;BME280;57052;55.602;38.096;2023-04-06T12:26:49;100977.50;;;25.32;23.68
69780;BME280;57052;55.602;38.096;2023-04-06T12:29:15;100977.84;;;25.19;23.79
69780;BME280;57052;55.602;38.096;2023-04-06T12:31:41;100974.06;;;25.11;23.93
69780;BME280;57052;55.602;38.096;2023-04-06T12:34:08;100973.41;;;25.02;24.01
69780;BME280;57052;55.602;38.096;2023-04-06T12:36:33;100967.97;;;24.94;23.75
69780;BME280;57052;55.602;38.096;2023-04-06T12:38:59;100960.22;;;24.75;23.89
69780;BME280;57052;55.602;38.096;2023-04-06T12:41:27;100978.66;;;24.71;24.02
69780;BME280;57052;55.602;38.096;2023-04-06T12:43:53;100968.06;;;24.61;24.11
69780;BME280;57052;55.602;38.096;2023-04-06T12:46:18;100956.53;;;24.47;24.21
69780;BME280;57052;55.602;38.096;2023-04-06T12:48:45;100966.91;;;24.50;24.41
69780;BME280;57052;55.602;38.096;2023-04-06T12:51:10;100971.03;;;24.44;24.52
69780;BME280;57052;55.602;38.096;2023-04-06T12:53:36;100972.41;;;24.38;24.67